ドバイ の空港の天気 - METARとTAF

ドバイ国際空港 ( OMDB / DXB ) - アラブ首長国連邦 ドバイ
飛行場実況気象(Metar)
観測時間07/16 10:00 GST (07/16 06:00 UTC)
風向・風速南 3m/s
視程10km以上
天気現象
なし
気温37℃
湿度57%
気圧994hPa
METAROMDB 160600Z 18005KT 090V230 CAVOK 37/27 Q0994 NOSIG
過去の天気等 Google飛行場航空写真 Wunderground天気予報

過去48時間のMETAR

飛行場予報(TAF)
発表時間: 7/16 09:00 GST (7/16 05:00 UTC)
予報対象時間: 16日10時 GST ~ 17日16時 GST
風向・風速南南西 4m/s
視程8000m
なし
16日10時 GST ~ 16日12時 GST に徐々に
風向・風速西 8m/s
16日20時 GST ~ 16日22時 GST に徐々に
風向・風速南南西 4m/s
17日10時 GST ~ 17日12時 GST に徐々に
風向・風速西 6m/s
TAF OMDB 160500Z 1606/1712 21008KT 8000 NSC
BECMG 1606/1608 27015KT
BECMG 1616/1618 20007KT
BECMG 1706/1708 28012KT